Time;durP1;ratioP1;P1;durP2;ratioP2;P2;SDS_P1;SDS_P2;PMS_P1;PMS_P2;Temp;Humidity;BMP_temperature;BMP_pressure;BME280_temperature;BME280_humidity;BME280_pressure;Samples;Min_cycle;Max_cycle;Signal;HPM_P1;HPM_P2
2022/06/10 00:00:59;;;;;;;0.68;0.20;;;18.10;99.90;;;;;;5011472;28;20037;-70
2022/06/10 00:04:03;;;;;;;1.45;0.30;;;18.10;99.90;;;;;;5010638;28;20061;-69
2022/06/10 00:07:07;;;;;;;0.10;0.10;;;18.10;99.90;;;;;;5011071;28;20048;-69
2022/06/10 00:10:13;;;;;;;0.40;0.20;;;18.20;99.90;;;;;;5011418;28;20507;-70
2022/06/10 00:13:19;;;;;;;0.22;0.20;;;18.10;99.90;;;;;;5027559;28;20052;-71
2022/06/10 00:16:24;;;;;;;0.43;0.10;;;18.10;99.90;;;;;;5025301;28;20499;-70
2022/06/10 00:19:27;;;;;;;0.20;0.10;;;18.10;99.90;;;;;;5031390;28;20047;-71
2022/06/10 00:22:31;;;;;;;0.17;0.17;;;18.10;99.90;;;;;;5015653;28;20051;-71
2022/06/10 00:25:36;;;;;;;0.10;0.10;;;18.10;99.90;;;;;;5015011;28;20404;-70
2022/06/10 00:28:43;;;;;;;6.85;0.52;;;18.00;99.90;;;;;;5011556;28;20049;-71
2022/06/10 00:31:47;;;;;;;1.98;0.10;;;18.00;99.90;;;;;;5010952;28;20064;-71
2022/06/10 00:34:51;;;;;;;0.10;0.10;;;18.10;99.80;;;;;;5015106;28;20049;-70
2022/06/10 00:37:56;;;;;;;0.47;0.32;;;18.20;99.60;;;;;;5011132;28;20384;-70
2022/06/10 00:41:00;;;;;;;0.10;0.10;;;18.20;99.60;;;;;;5011394;28;20056;-69
2022/06/10 00:44:04;;;;;;;0.20;0.20;;;18.30;99.30;;;;;;5014337;28;20522;-70
2022/06/10 00:47:18;;;;;;;0.35;0.17;;;18.30;99.20;;;;;;5010738;28;20049;-71
2022/06/10 00:50:24;;;;;;;1.58;0.10;;;18.30;99.00;;;;;;5011294;28;20057;-69
2022/06/10 00:53:35;;;;;;;1.15;0.20;;;18.40;99.20;;;;;;5010182;28;20037;-70
2022/06/10 00:56:43;;;;;;;0.15;0.10;;;18.40;98.80;;;;;;5014286;28;20091;-69
2022/06/10 01:00:03;;;;;;;0.10;0.10;;;18.40;99.10;;;;;;5030627;28;20060;-70
2022/06/10 01:03:08;;;;;;;3.50;0.25;;;18.40;99.00;;;;;;5010407;28;20787;-70
2022/06/10 01:06:12;;;;;;;1.20;0.15;;;18.40;99.10;;;;;;5013988;28;20057;-69
2022/06/10 01:09:17;;;;;;;2.72;0.20;;;18.40;98.90;;;;;;5010676;28;20499;-69
2022/06/10 01:12:33;;;;;;;0.10;0.10;;;18.40;98.90;;;;;;5010622;28;20056;-69
2022/06/10 01:16:13;;;;;;;1.55;0.10;;;18.40;98.90;;;;;;5022792;28;20040;-69
2022/06/10 01:19:36;;;;;;;0.40;0.13;;;18.40;98.90;;;;;;5022840;28;20053;-69
2022/06/10 01:23:16;;;;;;;0.30;0.10;;;18.30;98.60;;;;;;5010580;28;20060;-70
2022/06/10 01:26:23;;;;;;;1.73;0.20;;;18.30;98.60;;;;;;5010803;28;20425;-70
2022/06/10 01:29:42;;;;;;;0.25;0.10;;;18.20;98.60;;;;;;5026599;28;20052;-70
2022/06/10 01:33:15;;;;;;;0.20;0.10;;;18.20;98.90;;;;;;5022320;28;20630;-69
2022/06/10 01:36:41;;;;;;;0.30;0.10;;;18.20;98.50;;;;;;5015454;28;20844;-69
2022/06/10 01:40:29;;;;;;;0.15;0.15;;;18.20;98.60;;;;;;5014303;28;20056;-69
2022/06/10 01:43:55;;;;;;;0.20;0.20;;;18.20;98.90;;;;;;5013607;28;20045;-69
2022/06/10 01:47:03;;;;;;;0.47;0.10;;;18.10;99.20;;;;;;5026503;28;20049;-69
2022/06/10 01:50:23;;;;;;;0.40;0.20;;;18.00;99.30;;;;;;5033146;28;20056;-70
2022/06/10 01:53:32;;;;;;;0.82;0.10;;;18.00;99.60;;;;;;5033503;28;20044;-69
2022/06/10 01:56:41;;;;;;;1.30;0.40;;;17.90;99.70;;;;;;5017484;28;20376;-70
2022/06/10 01:59:52;;;;;;;0.45;0.20;;;17.90;99.70;;;;;;5016544;28;20036;-70
2022/06/10 02:03:06;;;;;;;1.83;0.20;;;17.90;99.90;;;;;;5033535;28;20498;-69
2022/06/10 02:06:20;;;;;;;0.10;0.10;;;17.80;99.90;;;;;;5032931;28;20036;-70
2022/06/10 02:09:51;;;;;;;2.67;0.30;;;17.80;99.70;;;;;;5029202;28;20065;-69
2022/06/10 02:13:04;;;;;;;1.35;0.40;;;17.90;99.80;;;;;;5026482;28;20057;-70
2022/06/10 02:16:14;;;;;;;0.85;0.40;;;17.90;99.70;;;;;;5013209;28;20049;-69
2022/06/10 02:19:35;;;;;;;0.43;0.22;;;17.90;99.70;;;;;;5013346;28;20052;-69
2022/06/10 02:22:45;;;;;;;0.50;0.20;;;17.90;99.90;;;;;;5024501;28;20052;-70
2022/06/10 02:25:57;;;;;;;0.75;0.30;;;17.90;99.90;;;;;;5032557;28;20049;-70
2022/06/10 02:29:07;;;;;;;0.20;0.20;;;17.80;99.90;;;;;;5033364;28;20048;-70
2022/06/10 02:32:11;;;;;;;0.88;0.30;;;17.70;99.90;;;;;;5015509;28;20045;-70
2022/06/10 02:35:16;;;;;;;0.20;0.15;;;17.60;99.90;;;;;;5012857;28;20060;-69
2022/06/10 02:38:34;;;;;;;1.77;0.20;;;17.60;99.90;;;;;;5012597;28;20500;-70
2022/06/10 02:41:52;;;;;;;0.15;0.15;;;17.50;99.90;;;;;;5012737;28;20045;-70
2022/06/10 02:45:28;;;;;;;0.50;0.28;;;17.50;99.90;;;;;;5019081;28;20054;-70
2022/06/10 02:49:10;;;;;;;0.50;0.20;;;17.50;99.90;;;;;;5032150;28;20056;-69
2022/06/10 02:52:18;;;;;;;0.77;0.22;;;17.40;99.90;;;;;;5033055;28;20044;-70
2022/06/10 02:55:25;;;;;;;0.55;0.30;;;17.40;99.90;;;;;;5012721;28;20049;-70
2022/06/10 03:02:04;;;;;;;0.10;0.10;;;17.40;99.90;;;;;;5014885;28;20400;-70
2022/06/10 03:05:25;;;;;;;0.30;0.30;;;17.30;99.90;;;;;;5011016;28;20076;-70
2022/06/10 03:08:38;;;;;;;0.45;0.20;;;17.30;99.90;;;;;;5011868;28;20041;-70
2022/06/10 03:11:50;;;;;;;0.63;0.28;;;17.20;99.90;;;;;;5011435;28;20044;-70
2022/06/10 03:15:24;;;;;;;0.80;0.30;;;17.10;99.90;;;;;;5012016;28;20588;-70
2022/06/10 03:18:51;;;;;;;1.40;0.30;;;17.10;99.90;;;;;;5012269;28;20594;-69
2022/06/10 03:22:23;;;;;;;2.38;0.38;;;17.10;99.90;;;;;;5039019;28;20387;-69
2022/06/10 03:25:36;;;;;;;0.10;0.10;;;17.00;99.90;;;;;;5022695;28;20052;-70
2022/06/10 03:29:05;;;;;;;0.32;0.30;;;16.90;99.90;;;;;;5014384;28;20040;-69
2022/06/10 03:32:12;;;;;;;1.17;0.38;;;16.90;99.90;;;;;;5011762;28;20056;-69
2022/06/10 03:35:44;;;;;;;0.90;0.22;;;16.90;99.90;;;;;;5026601;28;20494;-70
2022/06/10 03:38:50;;;;;;;0.20;0.20;;;16.80;99.90;;;;;;5030729;28;20064;-70
2022/06/10 03:42:09;;;;;;;0.43;0.30;;;16.90;99.90;;;;;;5030526;28;20052;-70
2022/06/10 03:45:17;;;;;;;0.75;0.55;;;16.90;99.90;;;;;;5031224;28;20052;-70
2022/06/10 03:48:25;;;;;;;3.40;0.40;;;16.90;99.90;;;;;;5013511;28;20057;-70
2022/06/10 03:51:31;;;;;;;1.13;0.30;;;16.90;99.90;;;;;;5012727;28;20045;-70
2022/06/10 03:54:36;;;;;;;0.80;0.28;;;16.90;99.90;;;;;;5031746;28;20056;-70
2022/06/10 03:57:41;;;;;;;0.60;0.30;;;16.90;99.90;;;;;;5015266;28;20044;-70
2022/06/10 04:00:45;;;;;;;0.50;0.30;;;16.90;99.90;;;;;;5018514;28;20052;-69
2022/06/10 04:03:49;;;;;;;0.30;0.25;;;16.90;99.90;;;;;;5031407;28;20044;-70
2022/06/10 04:06:53;;;;;;;1.20;0.50;;;16.90;99.90;;;;;;5029893;28;20404;-69
2022/06/10 04:09:57;;;;;;;1.15;0.30;;;17.00;99.90;;;;;;5025979;28;20487;-69
2022/06/10 04:13:02;;;;;;;3.20;0.40;;;17.00;99.90;;;;;;5031326;28;20056;-70
2022/06/10 04:16:06;;;;;;;0.50;0.30;;;17.00;99.90;;;;;;5010641;28;20899;-69
2022/06/10 04:19:12;;;;;;;1.02;0.38;;;17.10;99.90;;;;;;5023336;28;20048;-69
2022/06/10 04:22:17;;;;;;;1.02;0.38;;;17.10;99.90;;;;;;5030589;28;20052;-70
2022/06/10 04:25:22;;;;;;;1.70;0.50;;;17.20;99.90;;;;;;5030662;28;20040;-69
2022/06/10 04:28:28;;;;;;;2.25;0.30;;;17.30;99.90;;;;;;5029390;28;20045;-69
2022/06/10 04:31:32;;;;;;;0.30;0.30;;;17.30;99.90;;;;;;5030127;28;20049;-69
2022/06/10 04:34:36;;;;;;;0.98;0.52;;;17.30;99.90;;;;;;5011049;28;20064;-69
2022/06/10 04:37:40;;;;;;;1.92;0.40;;;17.40;99.90;;;;;;5022777;28;20049;-69
2022/06/10 04:40:44;;;;;;;2.28;0.30;;;17.60;99.90;;;;;;5030061;28;20044;-69
2022/06/10 04:43:48;;;;;;;1.98;0.30;;;17.70;99.90;;;;;;5029693;28;20041;-71
2022/06/10 04:46:54;;;;;;;1.00;0.30;;;17.80;99.90;;;;;;5028825;28;20032;-71
2022/06/10 04:49:59;;;;;;;0.90;0.30;;;18.00;99.90;;;;;;5030121;28;20036;-70
2022/06/10 04:53:03;;;;;;;2.15;0.20;;;18.20;99.90;;;;;;5030953;28;20048;-70
2022/06/10 04:56:08;;;;;;;0.73;0.30;;;18.30;99.90;;;;;;5009507;28;20049;-69
2022/06/10 04:59:13;;;;;;;0.30;0.25;;;18.40;99.90;;;;;;4997468;28;20531;-70
2022/06/10 05:02:18;;;;;;;2.67;0.40;;;18.60;99.90;;;;;;5030794;28;20045;-70
2022/06/10 05:05:22;;;;;;;0.40;0.30;;;18.80;99.90;;;;;;5010541;28;20049;-70
2022/06/10 05:08:27;;;;;;;0.47;0.28;;;19.00;99.70;;;;;;5009888;28;20045;-71
2022/06/10 05:11:31;;;;;;;3.08;0.50;;;19.40;99.70;;;;;;5012811;28;20049;-70
2022/06/10 05:14:37;;;;;;;0.63;0.45;;;19.70;99.60;;;;;;5012606;28;20048;-70
2022/06/10 05:17:42;;;;;;;1.85;0.40;;;19.90;99.60;;;;;;5017600;28;20052;-70
2022/06/10 05:20:46;;;;;;;1.17;0.32;;;20.20;99.30;;;;;;5017367;28;20048;-70
2022/06/10 05:23:50;;;;;;;1.63;0.40;;;20.40;98.50;;;;;;5034062;28;20040;-70
2022/06/10 05:26:54;;;;;;;2.08;0.50;;;20.70;98.60;;;;;;5020556;28;20065;-69
2022/06/10 05:29:58;;;;;;;2.60;0.45;;;21.10;98.60;;;;;;5018258;28;20474;-70
2022/06/10 05:33:04;;;;;;;2.15;0.20;;;21.00;98.20;;;;;;5014408;28;20057;-70
2022/06/10 05:36:08;;;;;;;1.00;0.30;;;21.00;98.30;;;;;;5013013;28;20408;-70
2022/06/10 05:39:13;;;;;;;2.38;0.40;;;23.00;97.00;;;;;;5016096;28;20057;-69
2022/06/10 05:42:18;;;;;;;0.93;0.20;;;24.40;95.10;;;;;;5034216;28;20697;-70
2022/06/10 05:45:24;;;;;;;1.67;0.30;;;26.60;93.10;;;;;;5016825;28;20041;-70
2022/06/10 05:48:28;;;;;;;1.00;0.17;;;28.40;91.60;;;;;;5018159;28;20045;-69
2022/06/10 05:51:33;;;;;;;0.80;0.40;;;29.40;90.10;;;;;;5033059;28;20048;-69
2022/06/10 05:54:42;;;;;;;0.68;0.20;;;30.00;87.70;;;;;;5032486;28;20130;-70
2022/06/10 05:57:48;;;;;;;1.77;0.30;;;30.10;87.10;;;;;;5027086;28;20049;-69
2022/06/10 06:00:52;;;;;;;0.22;0.10;;;30.70;85.20;;;;;;5033228;28;20392;-70
2022/06/10 06:03:56;;;;;;;0.40;0.20;;;30.70;84.50;;;;;;5033287;28;20045;-69
2022/06/10 06:07:01;;;;;;;0.82;0.10;;;30.70;83.60;;;;;;5032181;28;20052;-69
2022/06/10 06:10:06;;;;;;;0.75;0.13;;;30.90;82.70;;;;;;5033272;28;20045;-69
2022/06/10 06:13:10;;;;;;;0.55;0.25;;;31.30;82.30;;;;;;5013465;28;20653;-68
2022/06/10 06:16:18;;;;;;;2.75;0.22;;;31.50;81.70;;;;;;5029515;28;20045;-69
2022/06/10 06:19:23;;;;;;;1.95;0.32;;;31.20;80.30;;;;;;5030790;28;20049;-69
2022/06/10 06:22:27;;;;;;;2.38;0.30;;;31.30;81.20;;;;;;5012981;28;20061;-70
2022/06/10 06:25:32;;;;;;;0.28;0.10;;;31.30;79.90;;;;;;5028663;28;20048;-69
2022/06/10 06:28:37;;;;;;;1.38;0.20;;;31.60;79.40;;;;;;5030622;28;20048;-70
2022/06/10 06:31:41;;;;;;;0.20;0.20;;;31.40;79.70;;;;;;5030143;28;20651;-69
2022/06/10 06:34:46;;;;;;;2.40;0.30;;;31.30;77.00;;;;;;5028099;28;20057;-69
2022/06/10 06:37:53;;;;;;;2.00;0.40;;;31.30;76.70;;;;;;5027629;28;20064;-70
2022/06/10 06:40:58;;;;;;;1.65;0.68;;;31.00;77.00;;;;;;5035275;28;20044;-70
2022/06/10 06:44:04;;;;;;;2.47;0.30;;;30.40;77.70;;;;;;5032674;28;20056;-72
2022/06/10 06:47:13;;;;;;;0.38;0.13;;;30.10;78.10;;;;;;5020708;28;20032;-70
2022/06/10 06:50:20;;;;;;;3.47;0.40;;;31.00;76.90;;;;;;5037247;28;20048;-72
2022/06/10 06:53:25;;;;;;;3.78;0.30;;;31.70;72.90;;;;;;5035887;28;20056;-69
2022/06/10 06:56:29;;;;;;;0.70;0.70;;;32.10;71.00;;;;;;5030757;28;20044;-70
2022/06/10 06:59:33;;;;;;;2.00;0.20;;;32.60;70.30;;;;;;5025705;28;20049;-68
2022/06/10 07:02:38;;;;;;;1.02;0.20;;;32.60;70.80;;;;;;5033582;28;20467;-69
2022/06/10 07:05:45;;;;;;;0.60;0.10;;;33.10;70.00;;;;;;5020015;28;20397;-69
2022/06/10 07:08:50;;;;;;;1.85;0.20;;;33.40;68.40;;;;;;5024039;28;20060;-69
2022/06/10 07:11:54;;;;;;;3.00;0.20;;;34.30;68.90;;;;;;5023628;28;20053;-69
2022/06/10 07:14:59;;;;;;;0.77;0.10;;;33.90;66.40;;;;;;5018141;28;20044;-68
2022/06/10 07:18:04;;;;;;;0.63;0.20;;;33.10;67.60;;;;;;5021452;28;20547;-69
2022/06/10 07:21:08;;;;;;;1.52;0.20;;;31.70;67.90;;;;;;5026990;28;20388;-77
2022/06/10 07:24:12;;;;;;;0.47;0.28;;;29.50;70.30;;;;;;5025154;28;20052;-70
2022/06/10 07:27:16;;;;;;;2.63;0.30;;;28.90;70.40;;;;;;5023514;28;20044;-69
2022/06/10 07:30:21;;;;;;;0.80;0.13;;;28.60;71.90;;;;;;5024257;28;20051;-73
2022/06/10 07:33:26;;;;;;;0.80;0.20;;;29.50;70.50;;;;;;5031258;28;20060;-69
2022/06/10 07:36:30;;;;;;;4.82;0.40;;;29.10;70.40;;;;;;5022423;28;20388;-70
2022/06/10 07:39:35;;;;;;;1.23;0.50;;;28.40;71.90;;;;;;5021969;28;20048;-69
2022/06/10 07:42:39;;;;;;;3.13;0.45;;;27.40;72.00;;;;;;5025211;28;20044;-69
2022/06/10 07:45:43;;;;;;;1.27;0.20;;;26.60;73.40;;;;;;5022945;28;20048;-73
2022/06/10 07:48:48;;;;;;;1.20;0.30;;;25.80;74.50;;;;;;5023759;28;20506;-72
2022/06/10 07:51:52;;;;;;;3.58;0.47;;;25.40;74.90;;;;;;5026904;28;20045;-70
2022/06/10 07:54:56;;;;;;;4.45;0.40;;;25.20;76.10;;;;;;5021648;28;20498;-73
2022/06/10 07:58:00;;;;;;;1.20;0.32;;;25.30;76.10;;;;;;5027117;28;20395;-70
2022/06/10 08:01:04;;;;;;;1.90;0.40;;;25.00;76.30;;;;;;5022223;28;20048;-73
2022/06/10 08:04:09;;;;;;;1.88;0.40;;;24.80;77.30;;;;;;5023269;28;20399;-71
2022/06/10 08:07:13;;;;;;;1.13;0.20;;;24.80;78.00;;;;;;5024433;28;20056;-70
2022/06/10 08:10:24;;;;;;;0.70;0.30;;;24.90;78.00;;;;;;5029092;28;20036;-68
2022/06/10 08:13:29;;;;;;;4.35;0.38;;;25.00;78.30;;;;;;5024160;28;20388;-69
2022/06/10 08:16:35;;;;;;;1.00;0.50;;;24.90;77.70;;;;;;5020528;28;20470;-69
2022/06/10 08:19:42;;;;;;;0.52;0.30;;;25.30;78.70;;;;;;5020735;28;20100;-71
2022/06/10 08:22:47;;;;;;;0.68;0.30;;;25.40;79.40;;;;;;5020871;28;20052;-70
2022/06/10 08:25:51;;;;;;;3.72;0.40;;;25.60;79.60;;;;;;5023994;28;20067;-71
2022/06/10 08:28:59;;;;;;;0.93;0.35;;;25.40;81.10;;;;;;5023671;28;20048;-69
2022/06/10 08:32:03;;;;;;;1.95;0.43;;;25.20;81.20;;;;;;5023259;28;20036;-69
2022/06/10 08:35:07;;;;;;;2.42;0.40;;;25.00;82.50;;;;;;5025193;28;20045;-69
2022/06/10 08:38:13;;;;;;;1.92;0.30;;;25.10;82.70;;;;;;5023942;28;20057;-68
2022/06/10 08:41:34;;;;;;;4.88;0.50;;;25.40;83.70;;;;;;5010504;28;20088;-69
2022/06/10 08:44:38;;;;;;;1.50;0.30;;;25.30;81.30;;;;;;5027418;28;20064;-71
2022/06/10 08:48:26;;;;;;;1.02;0.30;;;25.10;81.80;;;;;;5024924;28;20373;-72
2022/06/10 08:51:49;;;;;;;1.42;0.50;;;24.40;81.70;;;;;;4948989;29;20402;-70
2022/06/10 08:55:26;;;;;;;0.65;0.35;;;24.40;82.80;;;;;;4958652;28;20050;-70
2022/06/10 08:58:33;;;;;;;0.68;0.55;;;24.50;82.60;;;;;;5027726;28;20385;-69
2022/06/10 09:01:53;;;;;;;0.85;0.30;;;24.70;83.10;;;;;;5022141;28;20036;-75
2022/06/10 09:05:03;;;;;;;5.30;0.50;;;24.30;84.30;;;;;;5024857;28;20400;-71
2022/06/10 09:08:17;;;;;;;0.30;0.30;;;24.30;85.20;;;;;;5029299;28;20045;-69
2022/06/10 09:11:37;;;;;;;1.58;0.40;;;24.40;86.20;;;;;;5025026;28;20041;-69
2022/06/10 09:14:42;;;;;;;3.50;0.47;;;24.70;86.50;;;;;;5017750;28;20049;-69
2022/06/10 09:17:53;;;;;;;0.40;0.38;;;24.80;86.50;;;;;;5026066;28;20048;-74
2022/06/10 09:21:07;;;;;;;3.63;0.40;;;24.80;85.40;;;;;;5025843;28;20056;-70
2022/06/10 09:24:25;;;;;;;2.80;0.40;;;25.30;85.80;;;;;;5023067;28;20479;-70
2022/06/10 09:27:37;;;;;;;1.40;0.30;;;25.80;86.10;;;;;;5026529;28;20064;-69
2022/06/10 09:30:44;;;;;;;;;;;25.40;84.70;;;;;;5029517;28;20048;-69
2022/06/10 09:34:05;;;;;;;0.80;0.40;;;25.30;85.30;;;;;;5032071;28;19913;-68
2022/06/10 09:37:28;;;;;;;1.00;0.30;;;25.30;85.00;;;;;;5027381;28;20044;-70
2022/06/10 09:40:37;;;;;;;0.80;0.40;;;25.20;84.60;;;;;;5030661;28;20060;-68
2022/06/10 09:43:53;;;;;;;2.85;0.30;;;25.20;85.00;;;;;;5029467;28;20040;-68
2022/06/10 09:46:58;;;;;;;2.10;0.40;;;25.70;84.50;;;;;;5031294;28;20491;-69
2022/06/10 09:50:21;;;;;;;0.50;0.30;;;26.80;83.30;;;;;;5031939;28;20063;-69
2022/06/10 09:53:28;;;;;;;1.13;0.38;;;26.80;81.50;;;;;;5040312;28;20053;-69
2022/06/10 09:56:51;;;;;;;2.15;0.47;;;26.70;82.10;;;;;;5035013;28;20036;-69
2022/06/10 10:00:07;;;;;;;0.68;0.30;;;26.80;81.50;;;;;;5030680;28;20040;-70
2022/06/10 10:03:35;;;;;;;0.90;0.40;;;26.90;81.70;;;;;;5026719;28;20048;-70
2022/06/10 10:06:57;;;;;;;0.85;0.38;;;26.20;81.70;;;;;;5025651;28;20585;-69
2022/06/10 10:10:31;;;;;;;2.45;0.40;;;26.60;81.40;;;;;;5032034;28;20041;-69
2022/06/10 10:13:56;;;;;;;0.70;0.40;;;26.70;80.30;;;;;;5024907;28;20048;-69
2022/06/10 10:17:24;;;;;;;1.80;0.35;;;26.60;80.70;;;;;;5031038;28;20048;-74
2022/06/10 10:20:47;;;;;;;1.45;0.30;;;26.20;80.20;;;;;;5027722;28;20045;-76
2022/06/10 10:23:53;;;;;;;0.25;0.20;;;26.00;79.70;;;;;;5029514;28;20052;-69
2022/06/10 10:26:58;;;;;;;3.28;0.47;;;26.10;80.50;;;;;;5025669;28;21485;-70
2022/06/10 10:30:16;;;;;;;0.65;0.50;;;26.00;80.70;;;;;;5032563;28;20676;-72
2022/06/10 10:33:20;;;;;;;0.40;0.30;;;25.80;79.90;;;;;;5024369;28;20048;-67
2022/06/10 10:36:50;;;;;;;6.43;0.80;;;26.20;79.60;;;;;;5027572;28;20056;-70
2022/06/10 10:40:00;;;;;;;1.20;0.40;;;26.30;78.90;;;;;;5028200;28;20058;-68
2022/06/10 10:43:09;;;;;;;0.85;0.20;;;26.80;78.60;;;;;;5030735;28;20048;-70
2022/06/10 10:46:34;;;;;;;1.67;0.30;;;27.50;78.40;;;;;;5029553;28;20052;-71
2022/06/10 10:49:46;;;;;;;2.95;0.52;;;27.20;77.80;;;;;;5032802;28;20052;-69
2022/06/10 10:52:50;;;;;;;2.30;0.50;;;27.30;78.20;;;;;;5032682;28;20049;-69
2022/06/10 10:55:58;;;;;;;2.22;0.70;;;27.30;79.90;;;;;;5031517;28;20044;-69
2022/06/10 10:59:03;;;;;;;6.07;0.50;;;27.00;79.20;;;;;;5029703;28;20407;-71
2022/06/10 11:02:25;;;;;;;0.43;0.20;;;27.40;79.50;;;;;;5035865;28;20052;-69
2022/06/10 11:05:46;;;;;;;0.93;0.38;;;28.00;78.00;;;;;;5028577;28;20048;-70
2022/06/10 11:09:16;;;;;;;0.40;0.30;;;28.30;75.90;;;;;;5028230;28;20048;-69
2022/06/10 11:12:25;;;;;;;0.40;0.30;;;29.00;77.50;;;;;;5024296;28;20052;-70
2022/06/10 11:15:31;;;;;;;0.40;0.30;;;29.70;76.80;;;;;;5028737;28;20525;-70
2022/06/10 11:18:37;;;;;;;1.98;0.40;;;29.80;74.10;;;;;;5027543;28;20044;-69
2022/06/10 11:21:53;;;;;;;4.97;0.30;;;29.90;75.90;;;;;;5028072;28;20048;-69
2022/06/10 11:25:03;;;;;;;0.80;0.40;;;30.30;74.90;;;;;;5027858;28;20044;-70
2022/06/10 11:28:21;;;;;;;0.32;0.28;;;31.10;73.80;;;;;;5021561;28;20377;-70
2022/06/10 11:31:43;;;;;;;0.63;0.22;;;32.20;72.30;;;;;;5028556;28;20039;-69
2022/06/10 11:34:59;;;;;;;2.03;0.40;;;31.70;71.20;;;;;;5023322;28;20052;-70
2022/06/10 11:38:03;;;;;;;0.45;0.20;;;31.80;71.60;;;;;;5025017;28;20060;-69
2022/06/10 11:41:34;;;;;;;1.75;0.20;;;33.20;70.50;;;;;;5028784;28;20037;-69
2022/06/10 11:44:43;;;;;;;1.23;0.30;;;32.40;70.20;;;;;;5020915;28;20053;-70
2022/06/10 11:48:04;;;;;;;0.40;0.30;;;32.30;72.20;;;;;;5014307;28;20036;-71
2022/06/10 11:51:38;;;;;;;0.25;0.20;;;32.70;71.10;;;;;;5028592;28;20043;-69
2022/06/10 11:55:07;;;;;;;0.28;0.20;;;32.70;68.50;;;;;;5030064;28;20052;-69
2022/06/10 12:01:53;;;;;;;0.45;0.20;;;31.90;70.00;;;;;;5020871;28;20044;-70
2022/06/10 12:05:05;;;;;;;0.20;0.20;;;32.80;70.40;;;;;;5023120;28;20045;-70
2022/06/10 12:08:44;;;;;;;0.17;0.17;;;33.60;68.50;;;;;;5013535;28;20037;-69
2022/06/10 12:12:10;;;;;;;0.90;0.32;;;34.00;68.70;;;;;;5025104;28;20036;-68
2022/06/10 12:15:28;;;;;;;1.45;0.30;;;34.50;68.30;;;;;;5014423;28;20049;-69
2022/06/10 12:18:40;;;;;;;0.40;0.30;;;35.00;66.80;;;;;;5017892;28;20070;-71
2022/06/10 12:21:45;;;;;;;1.98;0.30;;;35.00;65.90;;;;;;5028204;28;20048;-77
2022/06/10 12:24:50;;;;;;;0.28;0.20;;;34.70;66.60;;;;;;5022329;28;20518;-69
2022/06/10 12:28:03;;;;;;;0.47;0.25;;;34.90;66.10;;;;;;5016143;28;20044;-69
2022/06/10 12:31:20;;;;;;;1.85;0.30;;;34.10;68.40;;;;;;5021056;28;20531;-69
2022/06/10 12:34:45;;;;;;;0.55;0.40;;;33.50;66.10;;;;;;5027986;28;20056;-69
2022/06/10 12:38:09;;;;;;;0.50;0.30;;;32.30;68.70;;;;;;5028577;28;20049;-68
2022/06/10 12:41:18;;;;;;;0.88;0.45;;;33.00;68.30;;;;;;5014305;28;20420;-68
2022/06/10 12:44:26;;;;;;;2.25;0.40;;;33.70;67.30;;;;;;5023086;28;20032;-69
2022/06/10 12:47:38;;;;;;;2.30;0.40;;;32.90;66.70;;;;;;5009560;28;20053;-69
2022/06/10 12:50:56;;;;;;;;;;;32.50;66.70;;;;;;5023918;28;20045;-68
2022/06/10 12:54:37;;;;;;;1.52;0.55;;;32.50;67.70;;;;;;5019172;28;19909;-68
2022/06/10 12:57:46;;;;;;;0.65;0.40;;;31.40;68.60;;;;;;5026437;28;20061;-68
2022/06/10 13:00:51;;;;;;;0.30;0.30;;;30.20;69.20;;;;;;5030229;28;20052;-67
2022/06/10 13:03:59;;;;;;;3.65;0.40;;;30.80;69.00;;;;;;5016437;28;20071;-68
2022/06/10 13:07:05;;;;;;;0.60;0.40;;;30.60;67.00;;;;;;5023135;28;20118;-67
2022/06/10 13:10:33;;;;;;;0.93;0.30;;;30.10;69.30;;;;;;5028193;28;20044;-68
2022/06/10 13:13:37;;;;;;;0.40;0.32;;;29.90;70.30;;;;;;5028436;28;20052;-68
2022/06/10 13:16:46;;;;;;;1.95;0.65;;;30.60;70.30;;;;;;5030371;28;20072;-72
2022/06/10 13:19:58;;;;;;;0.75;0.40;;;31.10;69.90;;;;;;5030018;28;20045;-67
2022/06/10 13:23:09;;;;;;;0.70;0.40;;;31.10;69.50;;;;;;5010531;28;20523;-68
2022/06/10 13:26:19;;;;;;;6.65;0.57;;;29.50;68.40;;;;;;5011694;28;20044;-71
2022/06/10 13:29:24;;;;;;;1.30;0.50;;;28.20;71.90;;;;;;5015448;28;20040;-68
2022/06/10 13:32:29;;;;;;;1.05;0.50;;;28.00;71.50;;;;;;5032531;28;20064;-72
2022/06/10 13:35:38;;;;;;;2.47;0.45;;;28.20;72.10;;;;;;5025102;28;20044;-69
2022/06/10 13:38:45;;;;;;;0.70;0.50;;;28.60;72.90;;;;;;5033392;28;20372;-71
2022/06/10 13:41:52;;;;;;;1.92;0.60;;;28.80;72.10;;;;;;5033411;28;20060;-69
2022/06/10 13:45:04;;;;;;;0.77;0.45;;;27.80;71.60;;;;;;5013256;28;20049;-68
2022/06/10 13:48:18;;;;;;;0.88;0.70;;;27.00;73.90;;;;;;5029135;28;20048;-69
2022/06/10 13:51:28;;;;;;;1.75;1.08;;;26.30;73.70;;;;;;5031687;28;20053;-69
2022/06/10 13:54:32;;;;;;;1.00;0.60;;;25.90;76.30;;;;;;5033251;28;20522;-70
2022/06/10 13:57:37;;;;;;;1.25;0.60;;;26.00;76.20;;;;;;5015847;28;20041;-70
2022/06/10 14:00:48;;;;;;;2.80;0.60;;;26.60;75.80;;;;;;5021863;28;20044;-69
2022/06/10 14:04:06;;;;;;;0.55;0.47;;;26.70;76.20;;;;;;5026878;28;20088;-70
2022/06/10 14:07:26;;;;;;;2.13;0.50;;;26.50;73.80;;;;;;5032263;28;20052;-70
2022/06/10 14:10:47;;;;;;;4.55;0.70;;;26.50;75.20;;;;;;5024494;28;20379;-68
2022/06/10 14:14:02;;;;;;;;;;;26.40;75.70;;;;;;5031192;28;20060;-69
2022/06/10 14:17:13;;;;;;;1.02;0.60;;;26.70;75.90;;;;;;5032919;28;19909;-71
2022/06/10 14:20:19;;;;;;;;;;;27.30;75.40;;;;;;5031517;28;20060;-69
2022/06/10 14:23:27;;;;;;;0.75;0.68;;;27.40;76.20;;;;;;5014095;28;19917;-70
2022/06/10 14:26:35;;;;;;;1.65;0.68;;;27.80;77.00;;;;;;5024148;28;20048;-70
2022/06/10 14:29:58;;;;;;;1.33;0.70;;;28.10;76.80;;;;;;5025063;28;20056;-69
2022/06/10 14:33:15;;;;;;;2.25;0.80;;;28.30;75.30;;;;;;5022680;28;20048;-70
2022/06/10 14:36:23;;;;;;;5.80;1.77;;;27.80;74.60;;;;;;5031082;28;20048;-68
2022/06/10 14:39:30;;;;;;;1.25;0.80;;;27.20;76.70;;;;;;5022684;28;20048;-69
2022/06/10 14:42:36;;;;;;;2.03;0.70;;;26.60;76.40;;;;;;5024994;28;20048;-69
2022/06/10 14:45:42;;;;;;;1.73;0.75;;;26.60;78.30;;;;;;5026159;28;20384;-70
2022/06/10 14:48:47;;;;;;;3.25;0.80;;;26.50;79.40;;;;;;5030636;28;20040;-72
2022/06/10 14:51:51;;;;;;;1.48;0.70;;;27.00;77.80;;;;;;5023568;28;20045;-70
2022/06/10 14:54:56;;;;;;;0.80;0.70;;;27.30;78.10;;;;;;5022878;28;20049;-70
2022/06/10 14:58:09;;;;;;;0.88;0.73;;;27.40;78.20;;;;;;5015614;28;20605;-69
2022/06/10 15:01:32;;;;;;;1.73;0.70;;;26.60;78.60;;;;;;5014496;28;20060;-70
2022/06/10 15:04:35;;;;;;;1.48;0.70;;;26.00;78.30;;;;;;5023471;28;20061;-70
2022/06/10 15:07:39;;;;;;;2.95;0.88;;;26.20;78.20;;;;;;5022700;28;20041;-69
2022/06/10 15:10:46;;;;;;;1.23;0.60;;;26.30;77.70;;;;;;5023261;28;20395;-74
2022/06/10 15:13:50;;;;;;;1.92;0.90;;;26.50;77.90;;;;;;5024493;28;20049;-69
2022/06/10 15:16:55;;;;;;;1.10;0.80;;;26.20;77.30;;;;;;5023028;28;20068;-70
2022/06/10 15:19:59;;;;;;;6.65;0.90;;;26.30;79.50;;;;;;5031789;28;20549;-72
2022/06/10 15:23:03;;;;;;;1.25;0.70;;;26.10;77.90;;;;;;5030799;28;20155;-70
2022/06/10 15:26:11;;;;;;;1.13;0.70;;;26.00;79.20;;;;;;5019562;28;20052;-69
2022/06/10 15:29:20;;;;;;;2.67;0.77;;;26.00;79.60;;;;;;5018466;28;20044;-71
2022/06/10 15:32:24;;;;;;;1.52;0.70;;;26.00;79.20;;;;;;5027177;28;20040;-69
2022/06/10 15:42:15;;;;;;;6.10;1.13;;;26.70;78.50;;;;;;5029290;28;20036;-71
2022/06/10 15:45:19;;;;;;;0.70;0.63;;;27.00;79.60;;;;;;5025543;28;20044;-69
2022/06/10 15:48:25;;;;;;;0.88;0.60;;;27.10;79.30;;;;;;5023010;28;20044;-70
2022/06/10 15:51:41;;;;;;;2.53;0.73;;;27.00;78.60;;;;;;5030544;28;20411;-71
2022/06/10 15:58:15;;;;;;;1.75;0.80;;;26.90;78.00;;;;;;5022375;28;20048;-72
2022/06/10 16:01:19;;;;;;;1.33;0.63;;;27.10;78.90;;;;;;5011822;28;20388;-70
2022/06/10 16:04:26;;;;;;;1.58;0.63;;;27.20;79.10;;;;;;5031025;28;20095;-69
2022/06/10 16:07:30;;;;;;;2.22;0.70;;;26.90;79.10;;;;;;5014425;28;20048;-69
2022/06/10 16:10:37;;;;;;;2.30;0.80;;;26.60;79.30;;;;;;5024619;28;20049;-70
2022/06/10 16:13:44;;;;;;;2.55;0.70;;;26.50;80.20;;;;;;5030383;28;20491;-70
2022/06/10 16:16:48;;;;;;;2.60;0.93;;;26.40;79.50;;;;;;5020606;28;20044;-70
2022/06/10 16:19:53;;;;;;;2.83;0.90;;;26.10;81.30;;;;;;5020062;28;20498;-69
2022/06/10 16:23:02;;;;;;;1.08;0.73;;;26.30;80.60;;;;;;5031318;28;20064;-69
2022/06/10 16:26:29;;;;;;;1.23;0.73;;;26.30;81.30;;;;;;5029222;28;20048;-69
2022/06/10 16:29:34;;;;;;;3.13;0.90;;;26.20;80.60;;;;;;5026582;28;20052;-70
2022/06/10 16:32:38;;;;;;;1.30;0.80;;;26.30;81.00;;;;;;5029412;28;20028;-69
2022/06/10 16:35:42;;;;;;;2.95;1.42;;;26.40;81.60;;;;;;5010761;28;20049;-68
2022/06/10 16:38:47;;;;;;;1.88;0.82;;;26.40;80.70;;;;;;5024046;28;20052;-71
2022/06/10 16:41:51;;;;;;;1.50;1.02;;;26.40;81.30;;;;;;5028342;28;20052;-69
2022/06/10 16:44:55;;;;;;;2.25;0.93;;;26.40;81.20;;;;;;5028920;28;20044;-71
2022/06/10 16:47:59;;;;;;;6.90;1.08;;;26.50;81.70;;;;;;5020101;28;20526;-70
2022/06/10 16:51:02;;;;;;;1.48;0.95;;;26.40;80.80;;;;;;5028998;28;20032;-69